Time;durP1;ratioP1;P1;durP2;ratioP2;P2;SDS_P1;SDS_P2;PMS_P1;PMS_P2;Temp;Humidity;BMP_temperature;BMP_pressure;BME280_temperature;BME280_humidity;BME280_pressure;Samples;Min_cycle;Max_cycle;Signal;HPM_P1;HPM_P2
2019/10/31 00:00:25;;;;;;;28.2;24.8;;;;;;;;;;;;;
2019/10/31 00:02:50;;;;;;;30;25.6;;;;;;;;;;;;;
2019/10/31 00:05:15;;;;;;;29.5;25.9;;;;;;;;;;;;;
2019/10/31 00:07:40;;;;;;;29.2;25.3;;;;;;;;;;;;;
2019/10/31 00:10:05;;;;;;;27.4;23.5;;;;;;;;;;;;;
2019/10/31 00:12:30;;;;;;;28.6;25.5;;;;;;;;;;;;;
2019/10/31 00:14:56;;;;;;;27.8;24.9;;;;;;;;;;;;;
2019/10/31 00:17:21;;;;;;;28.5;24;;;;;;;;;;;;;
2019/10/31 00:19:46;;;;;;;27.9;24.7;;;;;;;;;;;;;
2019/10/31 00:22:11;;;;;;;28.3;25.1;;;;;;;;;;;;;
2019/10/31 00:24:36;;;;;;;28.2;25;;;;;;;;;;;;;
2019/10/31 00:27:01;;;;;;;27.7;24.7;;;;;;;;;;;;;
2019/10/31 00:29:26;;;;;;;28.3;25.2;;;;;;;;;;;;;
2019/10/31 00:31:51;;;;;;;30.2;26;;;;;;;;;;;;;
2019/10/31 00:34:16;;;;;;;30.8;26.3;;;;;;;;;;;;;
2019/10/31 00:36:41;;;;;;;28.4;25.1;;;;;;;;;;;;;
2019/10/31 00:39:07;;;;;;;28.1;24.8;;;;;;;;;;;;;
2019/10/31 00:41:32;;;;;;;28.3;25.2;;;;;;;;;;;;;
2019/10/31 00:43:57;;;;;;;28.2;25.2;;;;;;;;;;;;;
2019/10/31 00:46:22;;;;;;;29.3;25.5;;;;;;;;;;;;;
2019/10/31 00:48:47;;;;;;;29.6;25.6;;;;;;;;;;;;;
2019/10/31 00:51:13;;;;;;;29.4;25.8;;;;;;;;;;;;;
2019/10/31 00:53:38;;;;;;;30.7;25.6;;;;;;;;;;;;;
2019/10/31 00:56:03;;;;;;;29.6;25.6;;;;;;;;;;;;;
2019/10/31 00:58:28;;;;;;;27.6;24.6;;;;;;;;;;;;;
2019/10/31 01:00:54;;;;;;;29.2;25.1;;;;;;;;;;;;;
2019/10/31 01:03:19;;;;;;;29.2;25.9;;;;;;;;;;;;;
2019/10/31 01:05:44;;;;;;;29.4;25.7;;;;;;;;;;;;;
2019/10/31 01:08:09;;;;;;;28.5;25.4;;;;;;;;;;;;;
2019/10/31 01:10:34;;;;;;;31.1;25.8;;;;;;;;;;;;;
2019/10/31 01:12:59;;;;;;;29;25.8;;;;;;;;;;;;;
2019/10/31 01:15:24;;;;;;;30;25.8;;;;;;;;;;;;;
2019/10/31 01:17:52;;;;;;;31.3;27.9;;;;;;;;;;;;;
2019/10/31 01:20:14;;;;;;;29.7;26.3;;;;;;;;;;;;;
2019/10/31 01:22:39;;;;;;;28.4;25.4;;;;;;;;;;;;;
2019/10/31 01:25:04;;;;;;;30.2;26.2;;;;;;;;;;;;;
2019/10/31 01:27:30;;;;;;;29.4;26.2;;;;;;;;;;;;;
2019/10/31 01:29:55;;;;;;;29.6;25.2;;;;;;;;;;;;;
2019/10/31 01:32:20;;;;;;;29.5;26.2;;;;;;;;;;;;;
2019/10/31 01:34:45;;;;;;;30.9;26.5;;;;;;;;;;;;;
2019/10/31 01:37:10;;;;;;;30.6;27.3;;;;;;;;;;;;;
2019/10/31 01:39:35;;;;;;;29.2;26;;;;;;;;;;;;;
2019/10/31 01:42:00;;;;;;;30.1;26.8;;;;;;;;;;;;;
2019/10/31 01:44:28;;;;;;;29.1;26;;;;;;;;;;;;;
2019/10/31 01:46:50;;;;;;;29.9;26.6;;;;;;;;;;;;;
2019/10/31 01:49:15;;;;;;;30.4;27.1;;;;;;;;;;;;;
2019/10/31 01:51:42;;;;;;;32;27.8;;;;;;;;;;;;;
2019/10/31 01:54:17;;;;;;;30.9;27.6;;;;;;;;;;;;;
2019/10/31 01:56:30;;;;;;;31.2;27.9;;;;;;;;;;;;;
2019/10/31 01:58:56;;;;;;;30.6;27.3;;;;;;;;;;;;;
2019/10/31 02:01:21;;;;;;;30.3;27;;;;;;;;;;;;;
2019/10/31 02:03:46;;;;;;;30.3;27.1;;;;;;;;;;;;;
2019/10/31 02:06:35;;;;;;;32.3;28.1;;;;;;;;;;;;;
2019/10/31 02:09:31;;;;;;;32.1;28.5;;;;;;;;;;;;;
2019/10/31 02:11:56;;;;;;;32;28.3;;;;;;;;;;;;;
2019/10/31 02:14:21;;;;;;;33.6;28.5;;;;;;;;;;;;;
2019/10/31 02:16:46;;;;;;;34.4;28.5;;;;;;;;;;;;;
2019/10/31 02:19:12;;;;;;;33;29;;;;;;;;;;;;;
2019/10/31 02:22:25;;;;;;;35.8;30.4;;;;;;;;;;;;;
2019/10/31 02:24:50;;;;;;;32.3;28.8;;;;;;;;;;;;;
2019/10/31 02:27:15;;;;;;;34.9;29.2;;;;;;;;;;;;;
2019/10/31 02:29:40;;;;;;;33.5;29.9;;;;;;;;;;;;;
2019/10/31 02:32:05;;;;;;;34;30.3;;;;;;;;;;;;;
2019/10/31 02:34:30;;;;;;;32.5;29;;;;;;;;;;;;;
2019/10/31 02:36:56;;;;;;;33.8;30.1;;;;;;;;;;;;;
2019/10/31 02:39:21;;;;;;;33.8;30.1;;;;;;;;;;;;;
2019/10/31 02:41:46;;;;;;;33.3;29.3;;;;;;;;;;;;;
2019/10/31 02:44:11;;;;;;;34.6;30.8;;;;;;;;;;;;;
2019/10/31 02:46:36;;;;;;;36.3;31.4;;;;;;;;;;;;;
2019/10/31 02:49:01;;;;;;;35.9;31.3;;;;;;;;;;;;;
2019/10/31 02:51:26;;;;;;;35.6;31;;;;;;;;;;;;;
2019/10/31 02:53:52;;;;;;;34.8;30.2;;;;;;;;;;;;;
2019/10/31 02:56:17;;;;;;;36.4;32;;;;;;;;;;;;;
2019/10/31 02:58:42;;;;;;;38;32;;;;;;;;;;;;;
2019/10/31 03:01:07;;;;;;;36;31.7;;;;;;;;;;;;;
2019/10/31 03:03:32;;;;;;;36.3;32;;;;;;;;;;;;;
2019/10/31 03:05:57;;;;;;;35.2;31.2;;;;;;;;;;;;;
2019/10/31 03:08:22;;;;;;;36.5;31.2;;;;;;;;;;;;;
2019/10/31 03:10:48;;;;;;;37.4;32.1;;;;;;;;;;;;;
2019/10/31 03:13:13;;;;;;;37.7;31.5;;;;;;;;;;;;;
2019/10/31 03:15:38;;;;;;;35.1;31.3;;;;;;;;;;;;;
2019/10/31 03:18:03;;;;;;;35.7;31.2;;;;;;;;;;;;;
2019/10/31 03:20:28;;;;;;;37.3;32.5;;;;;;;;;;;;;
2019/10/31 03:22:53;;;;;;;37.1;33;;;;;;;;;;;;;
2019/10/31 03:25:18;;;;;;;38.7;32.8;;;;;;;;;;;;;
2019/10/31 03:27:43;;;;;;;39.9;33.9;;;;;;;;;;;;;
2019/10/31 03:30:08;;;;;;;41.3;34.7;;;;;;;;;;;;;
2019/10/31 03:32:33;;;;;;;41.1;34.8;;;;;;;;;;;;;
2019/10/31 03:34:58;;;;;;;40.5;34.4;;;;;;;;;;;;;
2019/10/31 03:37:23;;;;;;;43.7;35.1;;;;;;;;;;;;;
2019/10/31 03:39:49;;;;;;;41.1;34.9;;;;;;;;;;;;;
2019/10/31 03:42:14;;;;;;;41.1;34.8;;;;;;;;;;;;;
2019/10/31 03:44:39;;;;;;;41.1;35;;;;;;;;;;;;;
2019/10/31 03:47:04;;;;;;;41.9;35.7;;;;;;;;;;;;;
2019/10/31 03:49:29;;;;;;;43.4;35.9;;;;;;;;;;;;;
2019/10/31 03:51:54;;;;;;;41.9;35.7;;;;;;;;;;;;;
2019/10/31 03:54:19;;;;;;;43.3;35.8;;;;;;;;;;;;;
2019/10/31 03:56:44;;;;;;;41.6;35.5;;;;;;;;;;;;;
2019/10/31 03:59:09;;;;;;;44.3;35.8;;;;;;;;;;;;;
2019/10/31 04:01:34;;;;;;;42.1;36;;;;;;;;;;;;;
2019/10/31 04:03:59;;;;;;;40.4;34.9;;;;;;;;;;;;;
2019/10/31 04:06:24;;;;;;;43.6;35.9;;;;;;;;;;;;;
2019/10/31 04:08:50;;;;;;;46.5;38;;;;;;;;;;;;;
2019/10/31 04:11:15;;;;;;;43.5;36;;;;;;;;;;;;;
2019/10/31 04:13:40;;;;;;;42.4;36;;;;;;;;;;;;;
2019/10/31 04:16:05;;;;;;;46.1;37.3;;;;;;;;;;;;;
2019/10/31 04:18:30;;;;;;;39.3;34.6;;;;;;;;;;;;;
2019/10/31 04:20:55;;;;;;;43.5;36;;;;;;;;;;;;;
2019/10/31 04:23:20;;;;;;;43.1;36;;;;;;;;;;;;;
2019/10/31 04:25:45;;;;;;;40;33.4;;;;;;;;;;;;;
2019/10/31 04:28:10;;;;;;;40.7;34.5;;;;;;;;;;;;;
2019/10/31 04:30:36;;;;;;;43.7;35.3;;;;;;;;;;;;;
2019/10/31 04:33:01;;;;;;;44.1;35.4;;;;;;;;;;;;;
2019/10/31 04:35:26;;;;;;;42.2;34.6;;;;;;;;;;;;;
2019/10/31 04:37:51;;;;;;;43.4;35;;;;;;;;;;;;;
2019/10/31 04:40:16;;;;;;;41;34;;;;;;;;;;;;;
2019/10/31 04:42:41;;;;;;;41.5;33.7;;;;;;;;;;;;;
2019/10/31 04:45:06;;;;;;;44.2;35.6;;;;;;;;;;;;;
2019/10/31 04:47:32;;;;;;;42.6;35.4;;;;;;;;;;;;;
2019/10/31 04:49:57;;;;;;;42.8;35.2;;;;;;;;;;;;;
2019/10/31 04:52:22;;;;;;;41.1;34.2;;;;;;;;;;;;;
2019/10/31 04:54:47;;;;;;;41.2;33;;;;;;;;;;;;;
2019/10/31 04:57:12;;;;;;;38.4;32.5;;;;;;;;;;;;;
2019/10/31 04:59:37;;;;;;;41;34.1;;;;;;;;;;;;;
2019/10/31 05:02:02;;;;;;;42.3;33.4;;;;;;;;;;;;;
2019/10/31 05:04:27;;;;;;;40.3;33.2;;;;;;;;;;;;;
2019/10/31 05:06:52;;;;;;;40.2;33.6;;;;;;;;;;;;;
2019/10/31 05:09:17;;;;;;;45.5;33.9;;;;;;;;;;;;;
2019/10/31 05:11:43;;;;;;;38.4;31.5;;;;;;;;;;;;;
2019/10/31 05:14:08;;;;;;;38.6;31.7;;;;;;;;;;;;;
2019/10/31 05:16:33;;;;;;;38.7;31;;;;;;;;;;;;;
2019/10/31 05:18:58;;;;;;;37;30.6;;;;;;;;;;;;;
2019/10/31 05:21:23;;;;;;;32.8;28.2;;;;;;;;;;;;;
2019/10/31 05:23:48;;;;;;;34.6;29.2;;;;;;;;;;;;;
2019/10/31 05:26:13;;;;;;;33.2;28.1;;;;;;;;;;;;;
2019/10/31 05:28:38;;;;;;;35.2;29;;;;;;;;;;;;;
2019/10/31 05:31:03;;;;;;;33.5;28.2;;;;;;;;;;;;;
2019/10/31 05:33:28;;;;;;;34.5;28.9;;;;;;;;;;;;;
2019/10/31 05:35:54;;;;;;;33.4;27.6;;;;;;;;;;;;;
2019/10/31 05:38:19;;;;;;;34.6;27.3;;;;;;;;;;;;;
2019/10/31 05:40:44;;;;;;;33.4;28;;;;;;;;;;;;;
2019/10/31 05:43:09;;;;;;;32.3;27.5;;;;;;;;;;;;;
2019/10/31 05:45:34;;;;;;;35.4;27.8;;;;;;;;;;;;;
2019/10/31 05:47:59;;;;;;;31.4;26.1;;;;;;;;;;;;;
2019/10/31 05:50:24;;;;;;;30.9;26.2;;;;;;;;;;;;;
2019/10/31 05:52:49;;;;;;;35.8;28.2;;;;;;;;;;;;;
2019/10/31 05:55:14;;;;;;;35.5;28.5;;;;;;;;;;;;;
2019/10/31 05:57:40;;;;;;;32.3;27.1;;;;;;;;;;;;;
2019/10/31 06:00:05;;;;;;;34.9;28.4;;;;;;;;;;;;;
2019/10/31 06:02:30;;;;;;;34.3;26.9;;;;;;;;;;;;;
2019/10/31 06:04:55;;;;;;;34.3;28.1;;;;;;;;;;;;;
2019/10/31 06:07:20;;;;;;;31.6;27.1;;;;;;;;;;;;;
2019/10/31 06:09:45;;;;;;;32.7;27;;;;;;;;;;;;;
2019/10/31 06:12:10;;;;;;;32.5;26.8;;;;;;;;;;;;;
2019/10/31 06:14:35;;;;;;;34;28;;;;;;;;;;;;;
2019/10/31 06:17:01;;;;;;;32.5;26.6;;;;;;;;;;;;;
2019/10/31 06:19:26;;;;;;;34.8;28.1;;;;;;;;;;;;;
2019/10/31 06:21:51;;;;;;;35.5;27.5;;;;;;;;;;;;;
2019/10/31 06:24:16;;;;;;;34.6;27.6;;;;;;;;;;;;;
2019/10/31 06:26:41;;;;;;;34.3;28.4;;;;;;;;;;;;;
2019/10/31 06:29:06;;;;;;;34.7;27.6;;;;;;;;;;;;;
2019/10/31 06:31:31;;;;;;;35.4;28.3;;;;;;;;;;;;;
2019/10/31 06:33:56;;;;;;;35.9;28.3;;;;;;;;;;;;;
2019/10/31 06:36:21;;;;;;;34.9;27.4;;;;;;;;;;;;;
2019/10/31 06:38:46;;;;;;;32.5;26.8;;;;;;;;;;;;;
2019/10/31 06:41:11;;;;;;;32.8;26.8;;;;;;;;;;;;;
2019/10/31 06:43:37;;;;;;;34.7;27.1;;;;;;;;;;;;;
2019/10/31 06:46:06;;;;;;;32;26.4;;;;;;;;;;;;;
2019/10/31 06:48:27;;;;;;;31.2;24.8;;;;;;;;;;;;;
2019/10/31 06:50:52;;;;;;;32.1;25.3;;;;;;;;;;;;;
2019/10/31 06:53:17;;;;;;;32.9;26.4;;;;;;;;;;;;;
2019/10/31 06:55:42;;;;;;;31.7;25.6;;;;;;;;;;;;;
2019/10/31 06:58:07;;;;;;;33.3;25.2;;;;;;;;;;;;;
2019/10/31 07:00:33;;;;;;;33.4;25.8;;;;;;;;;;;;;
2019/10/31 07:02:58;;;;;;;30.6;24.7;;;;;;;;;;;;;
2019/10/31 07:05:23;;;;;;;30.7;25.4;;;;;;;;;;;;;
2019/10/31 07:07:48;;;;;;;32.8;25.8;;;;;;;;;;;;;
2019/10/31 07:10:13;;;;;;;32.9;25.5;;;;;;;;;;;;;
2019/10/31 07:12:38;;;;;;;32.5;25.3;;;;;;;;;;;;;
2019/10/31 07:15:03;;;;;;;33.8;27.4;;;;;;;;;;;;;
2019/10/31 07:17:28;;;;;;;31.8;25.1;;;;;;;;;;;;;
2019/10/31 07:19:53;;;;;;;32.2;25.5;;;;;;;;;;;;;
2019/10/31 07:22:18;;;;;;;32.3;24.7;;;;;;;;;;;;;
2019/10/31 07:24:43;;;;;;;32.4;25.4;;;;;;;;;;;;;
2019/10/31 07:27:08;;;;;;;33.4;25.5;;;;;;;;;;;;;
2019/10/31 07:29:34;;;;;;;32.3;25;;;;;;;;;;;;;
2019/10/31 07:31:59;;;;;;;31.3;24.6;;;;;;;;;;;;;
2019/10/31 07:34:24;;;;;;;32.8;25.9;;;;;;;;;;;;;
2019/10/31 07:36:49;;;;;;;33.4;25;;;;;;;;;;;;;
2019/10/31 07:39:14;;;;;;;30.1;23.9;;;;;;;;;;;;;
2019/10/31 07:41:39;;;;;;;32.1;25.3;;;;;;;;;;;;;
2019/10/31 07:44:04;;;;;;;31;25.3;;;;;;;;;;;;;
2019/10/31 07:46:29;;;;;;;33.1;25.8;;;;;;;;;;;;;
2019/10/31 07:48:54;;;;;;;30.5;24.8;;;;;;;;;;;;;
2019/10/31 07:51:20;;;;;;;31.8;24.4;;;;;;;;;;;;;
2019/10/31 07:53:45;;;;;;;30;24.7;;;;;;;;;;;;;
2019/10/31 07:56:10;;;;;;;34.9;25.4;;;;;;;;;;;;;
2019/10/31 07:58:35;;;;;;;32.4;25.4;;;;;;;;;;;;;
2019/10/31 08:01:00;;;;;;;31;24.7;;;;;;;;;;;;;
2019/10/31 08:03:25;;;;;;;32;25.6;;;;;;;;;;;;;
2019/10/31 08:05:50;;;;;;;33.1;26.5;;;;;;;;;;;;;
2019/10/31 08:08:15;;;;;;;31.5;25;;;;;;;;;;;;;
2019/10/31 08:10:41;;;;;;;34.6;26.5;;;;;;;;;;;;;
2019/10/31 08:13:06;;;;;;;34.6;26.8;;;;;;;;;;;;;
2019/10/31 08:15:31;;;;;;;34.5;26.6;;;;;;;;;;;;;
2019/10/31 08:17:56;;;;;;;34.3;26.8;;;;;;;;;;;;;
2019/10/31 08:20:21;;;;;;;34.4;27.4;;;;;;;;;;;;;
2019/10/31 08:22:46;;;;;;;34;26.2;;;;;;;;;;;;;
2019/10/31 08:25:11;;;;;;;34.1;26.7;;;;;;;;;;;;;
2019/10/31 08:27:36;;;;;;;35;27.3;;;;;;;;;;;;;
2019/10/31 08:30:01;;;;;;;34.1;27.8;;;;;;;;;;;;;
2019/10/31 08:32:26;;;;;;;35.4;28.1;;;;;;;;;;;;;
2019/10/31 08:34:52;;;;;;;38.9;28.4;;;;;;;;;;;;;
2019/10/31 08:37:17;;;;;;;46.3;36.5;;;;;;;;;;;;;
2019/10/31 08:39:42;;;;;;;35.1;28.2;;;;;;;;;;;;;
2019/10/31 08:42:07;;;;;;;38.4;29.5;;;;;;;;;;;;;
2019/10/31 08:44:32;;;;;;;33.2;27.4;;;;;;;;;;;;;
2019/10/31 08:46:57;;;;;;;33.9;27;;;;;;;;;;;;;
2019/10/31 08:49:22;;;;;;;34.4;27;;;;;;;;;;;;;
2019/10/31 08:51:48;;;;;;;34.8;27.6;;;;;;;;;;;;;
2019/10/31 08:54:13;;;;;;;36.4;28.2;;;;;;;;;;;;;
2019/10/31 08:56:38;;;;;;;35.6;28.1;;;;;;;;;;;;;
2019/10/31 08:59:03;;;;;;;33.9;27.1;;;;;;;;;;;;;
2019/10/31 09:01:28;;;;;;;35.3;27.3;;;;;;;;;;;;;
2019/10/31 09:03:53;;;;;;;32.3;26.1;;;;;;;;;;;;;
2019/10/31 09:06:18;;;;;;;33.5;26;;;;;;;;;;;;;
2019/10/31 09:08:43;;;;;;;33.6;27.2;;;;;;;;;;;;;
2019/10/31 09:11:08;;;;;;;35.6;27;;;;;;;;;;;;;
2019/10/31 09:13:33;;;;;;;32.8;26.7;;;;;;;;;;;;;
2019/10/31 09:15:58;;;;;;;36;26.7;;;;;;;;;;;;;
2019/10/31 09:18:24;;;;;;;32.5;26.7;;;;;;;;;;;;;
2019/10/31 09:20:49;;;;;;;33.9;26.7;;;;;;;;;;;;;
2019/10/31 09:23:14;;;;;;;33.8;27.2;;;;;;;;;;;;;
2019/10/31 09:25:39;;;;;;;34.7;27.3;;;;;;;;;;;;;
2019/10/31 09:28:04;;;;;;;32.5;25.6;;;;;;;;;;;;;
2019/10/31 09:30:29;;;;;;;35.7;28.1;;;;;;;;;;;;;
2019/10/31 09:32:54;;;;;;;73.8;51.7;;;;;;;;;;;;;
2019/10/31 09:35:20;;;;;;;36.2;27.3;;;;;;;;;;;;;
2019/10/31 09:37:45;;;;;;;40.4;30.6;;;;;;;;;;;;;
2019/10/31 09:40:10;;;;;;;34.4;26.1;;;;;;;;;;;;;
2019/10/31 09:42:35;;;;;;;30.9;25.2;;;;;;;;;;;;;
2019/10/31 09:45:00;;;;;;;31.8;24.5;;;;;;;;;;;;;
2019/10/31 09:47:25;;;;;;;31.4;24.5;;;;;;;;;;;;;
2019/10/31 09:49:51;;;;;;;28.6;23.3;;;;;;;;;;;;;
2019/10/31 09:52:16;;;;;;;29.5;24.3;;;;;;;;;;;;;
2019/10/31 09:54:41;;;;;;;30.8;23.8;;;;;;;;;;;;;
2019/10/31 09:57:06;;;;;;;30.4;23.7;;;;;;;;;;;;;
2019/10/31 09:59:31;;;;;;;30.9;23.1;;;;;;;;;;;;;
2019/10/31 10:01:56;;;;;;;27.9;22.9;;;;;;;;;;;;;
2019/10/31 10:04:21;;;;;;;29.1;22.9;;;;;;;;;;;;;
2019/10/31 10:06:46;;;;;;;29.1;23;;;;;;;;;;;;;
2019/10/31 10:09:11;;;;;;;30;24.2;;;;;;;;;;;;;
2019/10/31 10:11:36;;;;;;;30.9;23.8;;;;;;;;;;;;;
2019/10/31 10:14:01;;;;;;;33.4;23.9;;;;;;;;;;;;;
2019/10/31 10:16:27;;;;;;;32.4;24;;;;;;;;;;;;;
2019/10/31 10:18:52;;;;;;;32.4;24.6;;;;;;;;;;;;;
2019/10/31 10:21:17;;;;;;;30.8;23.8;;;;;;;;;;;;;
2019/10/31 10:23:42;;;;;;;30.1;23.7;;;;;;;;;;;;;
2019/10/31 10:26:07;;;;;;;30.7;24.3;;;;;;;;;;;;;
2019/10/31 10:28:32;;;;;;;30.7;23.4;;;;;;;;;;;;;
2019/10/31 10:30:57;;;;;;;28;22.8;;;;;;;;;;;;;
2019/10/31 10:33:22;;;;;;;28.5;23.2;;;;;;;;;;;;;
2019/10/31 10:35:47;;;;;;;30.1;24;;;;;;;;;;;;;
2019/10/31 10:38:12;;;;;;;30.9;24.3;;;;;;;;;;;;;
2019/10/31 10:40:37;;;;;;;32.4;24.9;;;;;;;;;;;;;
2019/10/31 10:43:02;;;;;;;28.9;23.6;;;;;;;;;;;;;
2019/10/31 10:45:27;;;;;;;30.4;24.2;;;;;;;;;;;;;
2019/10/31 10:47:53;;;;;;;29.7;24;;;;;;;;;;;;;
2019/10/31 10:50:18;;;;;;;28;23;;;;;;;;;;;;;
2019/10/31 10:52:43;;;;;;;30.2;23.5;;;;;;;;;;;;;
2019/10/31 10:55:08;;;;;;;29.3;22.5;;;;;;;;;;;;;
2019/10/31 10:57:33;;;;;;;30.6;23.6;;;;;;;;;;;;;
2019/10/31 10:59:58;;;;;;;26.9;21.3;;;;;;;;;;;;;
2019/10/31 11:02:23;;;;;;;29.1;22.1;;;;;;;;;;;;;
2019/10/31 11:04:48;;;;;;;26.4;21.5;;;;;;;;;;;;;
2019/10/31 11:07:14;;;;;;;26.5;20.7;;;;;;;;;;;;;
2019/10/31 11:09:39;;;;;;;27.6;21.5;;;;;;;;;;;;;
2019/10/31 11:12:04;;;;;;;29.8;22.9;;;;;;;;;;;;;
2019/10/31 11:14:29;;;;;;;27.8;22.2;;;;;;;;;;;;;
2019/10/31 11:16:54;;;;;;;24.7;20.7;;;;;;;;;;;;;
2019/10/31 11:19:19;;;;;;;25.8;21;;;;;;;;;;;;;
2019/10/31 11:21:44;;;;;;;26.5;21.5;;;;;;;;;;;;;
2019/10/31 11:24:09;;;;;;;26.2;20.5;;;;;;;;;;;;;
2019/10/31 11:26:34;;;;;;;25.2;20.8;;;;;;;;;;;;;
2019/10/31 11:28:59;;;;;;;26.2;21.1;;;;;;;;;;;;;
2019/10/31 11:31:25;;;;;;;25.5;19.8;;;;;;;;;;;;;
2019/10/31 11:33:50;;;;;;;23.8;19.3;;;;;;;;;;;;;
2019/10/31 11:36:15;;;;;;;26.1;20.4;;;;;;;;;;;;;
2019/10/31 11:38:40;;;;;;;25;19.9;;;;;;;;;;;;;
2019/10/31 11:41:05;;;;;;;25.2;20.8;;;;;;;;;;;;;
2019/10/31 11:43:30;;;;;;;25.4;20.4;;;;;;;;;;;;;
2019/10/31 11:45:55;;;;;;;25.2;19.7;;;;;;;;;;;;;
2019/10/31 11:48:20;;;;;;;24.5;19.9;;;;;;;;;;;;;
2019/10/31 11:50:45;;;;;;;26.7;21.3;;;;;;;;;;;;;
2019/10/31 11:53:10;;;;;;;24.4;19.9;;;;;;;;;;;;;
2019/10/31 11:55:35;;;;;;;23.6;19.6;;;;;;;;;;;;;
2019/10/31 11:58:00;;;;;;;23.7;18.8;;;;;;;;;;;;;
2019/10/31 12:00:26;;;;;;;24;19.5;;;;;;;;;;;;;
2019/10/31 12:02:51;;;;;;;26.2;20.7;;;;;;;;;;;;;
2019/10/31 12:05:16;;;;;;;26.8;21;;;;;;;;;;;;;
2019/10/31 12:07:41;;;;;;;26.3;20.5;;;;;;;;;;;;;
2019/10/31 12:10:06;;;;;;;26.3;20.5;;;;;;;;;;;;;
2019/10/31 12:12:31;;;;;;;26.3;21;;;;;;;;;;;;;
2019/10/31 12:14:56;;;;;;;26.6;20.8;;;;;;;;;;;;;
2019/10/31 12:17:21;;;;;;;25.9;20.2;;;;;;;;;;;;;
2019/10/31 12:19:46;;;;;;;26.9;20.4;;;;;;;;;;;;;
2019/10/31 12:22:11;;;;;;;26.1;20.6;;;;;;;;;;;;;
2019/10/31 12:24:36;;;;;;;25.5;20.6;;;;;;;;;;;;;
2019/10/31 12:27:01;;;;;;;26;20.5;;;;;;;;;;;;;
2019/10/31 12:29:26;;;;;;;26.8;20.6;;;;;;;;;;;;;
2019/10/31 12:31:51;;;;;;;26.4;20.7;;;;;;;;;;;;;
2019/10/31 12:34:16;;;;;;;26.7;21.1;;;;;;;;;;;;;
2019/10/31 12:36:42;;;;;;;28.9;21.9;;;;;;;;;;;;;
2019/10/31 12:39:07;;;;;;;29.1;21.9;;;;;;;;;;;;;
2019/10/31 12:41:32;;;;;;;28.5;21.9;;;;;;;;;;;;;
2019/10/31 12:43:57;;;;;;;28.7;21.9;;;;;;;;;;;;;
2019/10/31 12:46:22;;;;;;;27.7;21.7;;;;;;;;;;;;;
2019/10/31 12:48:47;;;;;;;26.8;21.1;;;;;;;;;;;;;
2019/10/31 12:51:13;;;;;;;26.8;21.4;;;;;;;;;;;;;
2019/10/31 12:53:38;;;;;;;28.3;22.6;;;;;;;;;;;;;
2019/10/31 12:56:03;;;;;;;27.5;21.7;;;;;;;;;;;;;
2019/10/31 12:58:28;;;;;;;30.6;23.1;;;;;;;;;;;;;
2019/10/31 13:00:53;;;;;;;28.4;21.9;;;;;;;;;;;;;
2019/10/31 13:03:18;;;;;;;28.1;21.9;;;;;;;;;;;;;
2019/10/31 13:05:43;;;;;;;28;22.2;;;;;;;;;;;;;
2019/10/31 13:08:08;;;;;;;27.7;22.5;;;;;;;;;;;;;
2019/10/31 13:10:33;;;;;;;29.7;22.9;;;;;;;;;;;;;
2019/10/31 13:12:58;;;;;;;28.8;22.9;;;;;;;;;;;;;
2019/10/31 13:15:23;;;;;;;29.9;22.5;;;;;;;;;;;;;
2019/10/31 13:17:48;;;;;;;30.1;22.3;;;;;;;;;;;;;
2019/10/31 13:20:14;;;;;;;29.6;21.5;;;;;;;;;;;;;
2019/10/31 13:22:39;;;;;;;27.1;21.3;;;;;;;;;;;;;
2019/10/31 13:25:04;;;;;;;26.8;21.2;;;;;;;;;;;;;
2019/10/31 13:27:29;;;;;;;26.5;20.5;;;;;;;;;;;;;
2019/10/31 13:29:54;;;;;;;25.4;19.7;;;;;;;;;;;;;
2019/10/31 13:32:19;;;;;;;26.6;19.5;;;;;;;;;;;;;
2019/10/31 13:34:44;;;;;;;24.6;19;;;;;;;;;;;;;
2019/10/31 13:37:09;;;;;;;22.2;17.8;;;;;;;;;;;;;
2019/10/31 13:39:34;;;;;;;21.9;17.8;;;;;;;;;;;;;
2019/10/31 13:42:00;;;;;;;23.1;18.4;;;;;;;;;;;;;
2019/10/31 13:44:25;;;;;;;24;18.8;;;;;;;;;;;;;
2019/10/31 13:46:50;;;;;;;22.2;18.4;;;;;;;;;;;;;
2019/10/31 13:49:15;;;;;;;22;17.5;;;;;;;;;;;;;
2019/10/31 13:51:40;;;;;;;22.6;18;;;;;;;;;;;;;
2019/10/31 13:54:05;;;;;;;22;17.6;;;;;;;;;;;;;
2019/10/31 13:56:30;;;;;;;21.9;17.8;;;;;;;;;;;;;
2019/10/31 13:58:55;;;;;;;22.3;18.4;;;;;;;;;;;;;
2019/10/31 14:01:20;;;;;;;26.7;20.4;;;;;;;;;;;;;
2019/10/31 14:03:46;;;;;;;25;19.9;;;;;;;;;;;;;
2019/10/31 14:06:11;;;;;;;25.5;19.5;;;;;;;;;;;;;
2019/10/31 14:08:36;;;;;;;25.4;20;;;;;;;;;;;;;
2019/10/31 14:11:01;;;;;;;27.2;20.4;;;;;;;;;;;;;
2019/10/31 14:13:26;;;;;;;27.1;20.3;;;;;;;;;;;;;
2019/10/31 14:15:51;;;;;;;26.8;20.5;;;;;;;;;;;;;
2019/10/31 14:18:16;;;;;;;25.2;19.7;;;;;;;;;;;;;
2019/10/31 14:20:41;;;;;;;24.9;19.4;;;;;;;;;;;;;
2019/10/31 14:23:07;;;;;;;25;19.5;;;;;;;;;;;;;
2019/10/31 14:25:32;;;;;;;25.3;19.5;;;;;;;;;;;;;
2019/10/31 14:27:57;;;;;;;23.8;18.9;;;;;;;;;;;;;
2019/10/31 14:30:22;;;;;;;26.9;20.5;;;;;;;;;;;;;
2019/10/31 14:32:47;;;;;;;26.7;21.1;;;;;;;;;;;;;
2019/10/31 14:35:12;;;;;;;26.7;21.6;;;;;;;;;;;;;
2019/10/31 14:37:37;;;;;;;25.8;20.8;;;;;;;;;;;;;
2019/10/31 14:40:02;;;;;;;25.3;20.7;;;;;;;;;;;;;
2019/10/31 14:42:27;;;;;;;25.4;19.9;;;;;;;;;;;;;
2019/10/31 14:44:52;;;;;;;31.2;23;;;;;;;;;;;;;
2019/10/31 14:47:17;;;;;;;28.2;21.1;;;;;;;;;;;;;
2019/10/31 14:49:43;;;;;;;30.6;24.8;;;;;;;;;;;;;
2019/10/31 14:52:08;;;;;;;27.7;21.9;;;;;;;;;;;;;
2019/10/31 14:54:33;;;;;;;30.7;23;;;;;;;;;;;;;
2019/10/31 14:56:58;;;;;;;27.3;21.7;;;;;;;;;;;;;
2019/10/31 14:59:23;;;;;;;28.8;21.5;;;;;;;;;;;;;
2019/10/31 15:01:48;;;;;;;26.7;21.6;;;;;;;;;;;;;
2019/10/31 15:04:13;;;;;;;28.1;22.4;;;;;;;;;;;;;
2019/10/31 15:06:38;;;;;;;27.6;22;;;;;;;;;;;;;
2019/10/31 15:09:03;;;;;;;29.1;22.4;;;;;;;;;;;;;
2019/10/31 15:11:29;;;;;;;28.9;21.8;;;;;;;;;;;;;
2019/10/31 15:13:54;;;;;;;29.1;22;;;;;;;;;;;;;
2019/10/31 15:16:19;;;;;;;25.4;21.4;;;;;;;;;;;;;
2019/10/31 15:19:07;;;;;;;31.4;23.5;;;;;;;;;;;;;
2019/10/31 15:21:09;;;;;;;30.8;23.8;;;;;;;;;;;;;
2019/10/31 15:23:34;;;;;;;33.3;25.2;;;;;;;;;;;;;
2019/10/31 15:25:59;;;;;;;32.3;24.7;;;;;;;;;;;;;
2019/10/31 15:28:25;;;;;;;30.7;23.4;;;;;;;;;;;;;
2019/10/31 15:30:50;;;;;;;28;22.7;;;;;;;;;;;;;
2019/10/31 15:33:15;;;;;;;30;23.7;;;;;;;;;;;;;
2019/10/31 15:35:40;;;;;;;29.1;22.9;;;;;;;;;;;;;
2019/10/31 15:38:05;;;;;;;29.9;22.7;;;;;;;;;;;;;
2019/10/31 15:40:30;;;;;;;28.7;23.1;;;;;;;;;;;;;
2019/10/31 15:42:55;;;;;;;28.7;23;;;;;;;;;;;;;
2019/10/31 15:45:20;;;;;;;30.8;23;;;;;;;;;;;;;
2019/10/31 15:47:45;;;;;;;28.1;22.9;;;;;;;;;;;;;
2019/10/31 15:50:10;;;;;;;30.9;23.5;;;;;;;;;;;;;
2019/10/31 15:52:35;;;;;;;29.4;23.8;;;;;;;;;;;;;
2019/10/31 15:55:01;;;;;;;28.6;23.1;;;;;;;;;;;;;
2019/10/31 15:57:26;;;;;;;31.1;24.2;;;;;;;;;;;;;
2019/10/31 15:59:51;;;;;;;29.5;23.8;;;;;;;;;;;;;
2019/10/31 16:02:16;;;;;;;31.6;24.5;;;;;;;;;;;;;
2019/10/31 16:04:41;;;;;;;31.8;24.5;;;;;;;;;;;;;
2019/10/31 16:07:06;;;;;;;29;24;;;;;;;;;;;;;
2019/10/31 16:09:31;;;;;;;29.7;23.3;;;;;;;;;;;;;
2019/10/31 16:11:56;;;;;;;30.7;25.1;;;;;;;;;;;;;
2019/10/31 16:14:21;;;;;;;29.7;23.7;;;;;;;;;;;;;
2019/10/31 16:16:47;;;;;;;30.2;24;;;;;;;;;;;;;
2019/10/31 16:19:12;;;;;;;30.8;24.6;;;;;;;;;;;;;
2019/10/31 16:21:37;;;;;;;33.5;26.1;;;;;;;;;;;;;
2019/10/31 16:24:02;;;;;;;31.8;25.7;;;;;;;;;;;;;
2019/10/31 16:26:27;;;;;;;33.8;25.5;;;;;;;;;;;;;
2019/10/31 16:28:52;;;;;;;33.4;26;;;;;;;;;;;;;
2019/10/31 16:31:17;;;;;;;33.1;26.5;;;;;;;;;;;;;
2019/10/31 16:33:42;;;;;;;33.2;26.6;;;;;;;;;;;;;
2019/10/31 16:36:07;;;;;;;34;26.7;;;;;;;;;;;;;
2019/10/31 16:38:32;;;;;;;34.4;27.3;;;;;;;;;;;;;
2019/10/31 16:40:57;;;;;;;33.4;26.7;;;;;;;;;;;;;
2019/10/31 16:43:23;;;;;;;35.6;28;;;;;;;;;;;;;
2019/10/31 16:45:48;;;;;;;34.5;27.6;;;;;;;;;;;;;
2019/10/31 16:48:13;;;;;;;33.7;28.3;;;;;;;;;;;;;
2019/10/31 16:50:38;;;;;;;35.9;27.9;;;;;;;;;;;;;
2019/10/31 16:53:03;;;;;;;35.8;28;;;;;;;;;;;;;
2019/10/31 16:55:28;;;;;;;35.4;27.6;;;;;;;;;;;;;
2019/10/31 16:57:53;;;;;;;35.3;29.1;;;;;;;;;;;;;
2019/10/31 17:00:18;;;;;;;39.1;29.7;;;;;;;;;;;;;
2019/10/31 17:02:43;;;;;;;38.2;29.8;;;;;;;;;;;;;
2019/10/31 17:05:08;;;;;;;39.6;32.6;;;;;;;;;;;;;
2019/10/31 17:07:34;;;;;;;41.3;30.9;;;;;;;;;;;;;
2019/10/31 17:09:59;;;;;;;36.8;29.5;;;;;;;;;;;;;
2019/10/31 17:12:24;;;;;;;36.7;29;;;;;;;;;;;;;
2019/10/31 17:14:49;;;;;;;35.5;27.8;;;;;;;;;;;;;
2019/10/31 17:17:14;;;;;;;36.1;29.9;;;;;;;;;;;;;
2019/10/31 17:19:39;;;;;;;37.2;30.4;;;;;;;;;;;;;
2019/10/31 17:22:04;;;;;;;37.6;30.2;;;;;;;;;;;;;
2019/10/31 17:24:29;;;;;;;38.8;30.6;;;;;;;;;;;;;
2019/10/31 17:26:54;;;;;;;37.2;30.4;;;;;;;;;;;;;
2019/10/31 17:29:19;;;;;;;37.3;30.1;;;;;;;;;;;;;
2019/10/31 17:31:44;;;;;;;38.3;30.7;;;;;;;;;;;;;
2019/10/31 17:34:10;;;;;;;39;32.2;;;;;;;;;;;;;
2019/10/31 17:36:35;;;;;;;38.2;31.8;;;;;;;;;;;;;
2019/10/31 17:39:00;;;;;;;36.7;30.2;;;;;;;;;;;;;
2019/10/31 17:41:25;;;;;;;38.3;31.7;;;;;;;;;;;;;
2019/10/31 17:43:50;;;;;;;36.1;30.2;;;;;;;;;;;;;
2019/10/31 17:46:15;;;;;;;40.1;31.6;;;;;;;;;;;;;
2019/10/31 17:48:40;;;;;;;38.6;30.6;;;;;;;;;;;;;
2019/10/31 17:51:05;;;;;;;40.2;33.1;;;;;;;;;;;;;
2019/10/31 17:53:30;;;;;;;38.1;32.3;;;;;;;;;;;;;
2019/10/31 17:55:55;;;;;;;39.8;33.2;;;;;;;;;;;;;
2019/10/31 17:58:20;;;;;;;41.7;34.3;;;;;;;;;;;;;
2019/10/31 18:00:45;;;;;;;39.5;32.9;;;;;;;;;;;;;
2019/10/31 18:03:10;;;;;;;38.5;33;;;;;;;;;;;;;
2019/10/31 18:05:36;;;;;;;40.6;32.6;;;;;;;;;;;;;
2019/10/31 18:08:01;;;;;;;42.3;33.2;;;;;;;;;;;;;
2019/10/31 18:10:26;;;;;;;41.1;33.7;;;;;;;;;;;;;
2019/10/31 18:12:51;;;;;;;39.8;33.5;;;;;;;;;;;;;
2019/10/31 18:15:16;;;;;;;42.2;34.1;;;;;;;;;;;;;
2019/10/31 18:17:41;;;;;;;42.4;34.3;;;;;;;;;;;;;
2019/10/31 18:20:06;;;;;;;43.5;36.1;;;;;;;;;;;;;
2019/10/31 18:22:31;;;;;;;44.5;36.6;;;;;;;;;;;;;
2019/10/31 18:24:57;;;;;;;44.3;36.7;;;;;;;;;;;;;
2019/10/31 18:27:22;;;;;;;42.3;35.7;;;;;;;;;;;;;
2019/10/31 18:29:47;;;;;;;44.5;36.1;;;;;;;;;;;;;
2019/10/31 18:32:12;;;;;;;45.2;37.3;;;;;;;;;;;;;
2019/10/31 18:34:37;;;;;;;45.4;37.8;;;;;;;;;;;;;
2019/10/31 18:37:02;;;;;;;45.7;37.7;;;;;;;;;;;;;
2019/10/31 18:39:27;;;;;;;46.5;37.8;;;;;;;;;;;;;
2019/10/31 18:41:52;;;;;;;49.8;40.2;;;;;;;;;;;;;
2019/10/31 18:44:17;;;;;;;47.1;38.8;;;;;;;;;;;;;
2019/10/31 18:46:42;;;;;;;47.3;39.8;;;;;;;;;;;;;
2019/10/31 18:49:07;;;;;;;48.2;39.6;;;;;;;;;;;;;
2019/10/31 18:51:33;;;;;;;49.1;39.7;;;;;;;;;;;;;
2019/10/31 18:53:58;;;;;;;49.5;39.6;;;;;;;;;;;;;
2019/10/31 18:58:48;;;;;;;47.5;40.9;;;;;;;;;;;;;
2019/10/31 19:01:13;;;;;;;52.4;42.8;;;;;;;;;;;;;
2019/10/31 19:03:38;;;;;;;51.1;41.6;;;;;;;;;;;;;
2019/10/31 19:06:03;;;;;;;50.5;41.5;;;;;;;;;;;;;
2019/10/31 19:08:28;;;;;;;51.7;42.8;;;;;;;;;;;;;
2019/10/31 19:10:53;;;;;;;53.1;43.3;;;;;;;;;;;;;
2019/10/31 19:13:18;;;;;;;52.5;43.6;;;;;;;;;;;;;
2019/10/31 19:15:43;;;;;;;51.2;43.1;;;;;;;;;;;;;
2019/10/31 19:18:09;;;;;;;53.2;43.9;;;;;;;;;;;;;
2019/10/31 19:20:34;;;;;;;55;44.9;;;;;;;;;;;;;
2019/10/31 19:22:59;;;;;;;54;44.5;;;;;;;;;;;;;
2019/10/31 19:25:24;;;;;;;54.8;45.4;;;;;;;;;;;;;
2019/10/31 19:27:49;;;;;;;55.9;45.3;;;;;;;;;;;;;
2019/10/31 19:30:14;;;;;;;56.5;46.7;;;;;;;;;;;;;
2019/10/31 19:32:39;;;;;;;56.5;46.6;;;;;;;;;;;;;
2019/10/31 19:35:04;;;;;;;57.2;46.5;;;;;;;;;;;;;
2019/10/31 19:37:29;;;;;;;56.8;46.7;;;;;;;;;;;;;
2019/10/31 19:39:54;;;;;;;55.6;46.2;;;;;;;;;;;;;
2019/10/31 19:42:19;;;;;;;57.9;46.8;;;;;;;;;;;;;
2019/10/31 19:44:44;;;;;;;58.6;47.8;;;;;;;;;;;;;